Time,TemperatureF,DewpointF,PressureIn,WindDirection,WindDirectionDegrees,WindSpeedMPH,WindSpeedGustMPH,Humidity,HourlyPrecipIn,Conditions,Clouds,dailyrainin,SoftwareType,DateUTC
2013-07-30 00:12:00,52.1,51.0,30.01,WNW,298,1.0,2.0,95,0.00,,,0.00,weatherlink.com 1.10,2013-07-30 07:12:00,
2013-07-30 00:42:00,52.0,51.0,30.01,South,184,0.0,1.0,95,0.00,,,0.00,weatherlink.com 1.10,2013-07-30 07:42:00,
2013-07-30 00:57:00,51.8,51.0,30.01,SSE,161,1.0,3.0,96,0.00,,,0.00,weatherlink.com 1.10,2013-07-30 07:57:00,
2013-07-30 01:12:00,51.9,51.0,30.02,NW,309,1.0,2.0,96,0.00,,,0.00,weatherlink.com 1.10,2013-07-30 08:12:00,
2013-07-30 01:27:00,51.7,51.0,30.02,South,183,2.0,5.0,96,0.00,,,0.00,weatherlink.com 1.10,2013-07-30 08:27:00,
2013-07-30 01:43:00,51.6,51.0,30.02,North,360,2.0,4.0,97,0.00,,,0.00,weatherlink.com 1.10,2013-07-30 08:43:00,
2013-07-30 01:57:00,51.2,50.0,30.01,SE,127,2.0,4.0,97,0.00,,,0.00,weatherlink.com 1.10,2013-07-30 08:57:00,
2013-07-30 02:13:00,50.9,50.0,30.01,East,96,1.0,4.0,97,0.00,,,0.00,weatherlink.com 1.10,2013-07-30 09:13:00,
2013-07-30 02:27:00,51.1,50.0,30.01,SE,139,1.0,2.0,97,0.00,,,0.00,weatherlink.com 1.10,2013-07-30 09:27:00,
2013-07-30 02:42:00,51.3,51.0,30.01,SE,137,1.0,2.0,98,0.00,,,0.00,weatherlink.com 1.10,2013-07-30 09:42:00,
2013-07-30 03:12:00,51.0,51.0,30.02,SE,132,0.0,2.0,98,0.00,,,0.00,weatherlink.com 1.10,2013-07-30 10:12:00,
2013-07-30 03:27:00,51.0,51.0,30.02,SE,139,2.0,4.0,98,0.00,,,0.00,weatherlink.com 1.10,2013-07-30 10:27:00,
2013-07-30 03:42:00,50.6,50.0,30.02,SSE,165,1.0,3.0,97,0.00,,,0.00,weatherlink.com 1.10,2013-07-30 10:42:00,
2013-07-30 03:57:00,50.7,50.0,30.01,SSE,165,1.0,1.0,98,0.00,,,0.00,weatherlink.com 1.10,2013-07-30 10:57:00,
2013-07-30 04:12:00,50.8,50.0,30.02,ESE,121,1.0,2.0,98,0.00,,,0.00,weatherlink.com 1.10,2013-07-30 11:12:00,
2013-07-30 04:27:00,50.7,50.0,30.02,ESE,121,0.0,1.0,98,0.00,,,0.00,weatherlink.com 1.10,2013-07-30 11:27:00,
2013-07-30 04:42:00,50.7,50.0,30.02,SE,139,0.0,3.0,98,0.00,,,0.00,weatherlink.com 1.10,2013-07-30 11:42:00,
2013-07-30 04:57:00,50.7,50.0,30.02,SE,139,0.0,1.0,98,0.00,,,0.00,weatherlink.com 1.10,2013-07-30 11:57:00,
2013-07-30 05:12:00,50.8,50.0,30.03,SE,139,1.0,1.0,98,0.00,,,0.00,weatherlink.com 1.10,2013-07-30 12:12:00,
2013-07-30 05:27:00,50.9,50.0,30.03,East,82,0.0,2.0,98,0.00,,,0.00,weatherlink.com 1.10,2013-07-30 12:27:00,
2013-07-30 05:42:00,50.8,50.0,30.04,South,171,2.0,2.0,98,0.00,,,0.00,weatherlink.com 1.10,2013-07-30 12:42:00,
2013-07-30 05:57:00,50.5,50.0,30.04,East,82,0.0,2.0,98,0.00,,,0.00,weatherlink.com 1.10,2013-07-30 12:57:00,
2013-07-30 06:12:00,50.8,50.0,30.05,East,82,0.0,1.0,98,0.00,,,0.00,weatherlink.com 1.10,2013-07-30 13:12:00,
2013-07-30 06:27:00,50.9,50.0,30.05,NE,56,1.0,2.0,98,0.00,,,0.00,weatherlink.com 1.10,2013-07-30 13:27:00,
2013-07-30 06:42:00,50.8,50.0,30.05,NNE,33,0.0,2.0,98,0.00,,,0.00,weatherlink.com 1.10,2013-07-30 13:42:00,
2013-07-30 06:57:00,51.0,51.0,30.06,SE,146,1.0,2.0,98,0.00,,,0.00,weatherlink.com 1.10,2013-07-30 13:57:00,
2013-07-30 07:12:00,51.2,51.0,30.06,SSE,161,0.0,2.0,98,0.00,,,0.00,weatherlink.com 1.10,2013-07-30 14:12:00,
2013-07-30 07:27:00,51.3,51.0,30.07,SE,134,3.0,4.0,98,0.00,,,0.00,weatherlink.com 1.10,2013-07-30 14:27:00,
2013-07-30 07:42:00,51.5,51.0,30.07,South,171,2.0,2.0,98,0.00,,,0.00,weatherlink.com 1.10,2013-07-30 14:42:00,
2013-07-30 07:57:00,51.5,51.0,30.08,South,171,1.0,2.0,98,0.00,,,0.00,weatherlink.com 1.10,2013-07-30 14:57:00,
2013-07-30 08:13:00,51.9,51.0,30.08,SSW,201,0.0,2.0,98,0.00,,,0.00,weatherlink.com 1.10,2013-07-30 15:13:00,
2013-07-30 08:28:00,52.2,52.0,30.08,South,170,1.0,2.0,98,0.00,,,0.00,weatherlink.com 1.10,2013-07-30 15:28:00,
2013-07-30 08:43:00,52.6,52.0,30.09,South,182,0.0,2.0,98,0.00,,,0.00,weatherlink.com 1.10,2013-07-30 15:43:00,
2013-07-30 08:58:00,52.9,52.0,30.09,SSW,204,0.0,2.0,97,0.00,,,0.00,weatherlink.com 1.10,2013-07-30 15:58:00,
2013-07-30 09:13:00,53.5,53.0,30.09,North,360,1.0,2.0,97,0.00,,,0.00,weatherlink.com 1.10,2013-07-30 16:13:00,
2013-07-30 09:28:00,54.2,53.0,30.09,West,261,1.0,3.0,95,0.00,,,0.00,weatherlink.com 1.10,2013-07-30 16:28:00,
2013-07-30 09:43:00,54.7,53.0,30.10,WSW,244,1.0,3.0,94,0.00,,,0.00,weatherlink.com 1.10,2013-07-30 16:43:00,
2013-07-30 09:58:00,56.0,54.0,30.10,WNW,300,1.0,3.0,91,0.00,,,0.00,weatherlink.com 1.10,2013-07-30 16:58:00,
2013-07-30 10:13:00,58.6,55.0,30.09,WNW,299,1.0,4.0,86,0.00,,,0.00,weatherlink.com 1.10,2013-07-30 17:13:00,
2013-07-30 10:28:00,59.1,55.0,30.10,West,277,2.0,5.0,85,0.00,,,0.00,weatherlink.com 1.10,2013-07-30 17:28:00,
2013-07-30 10:43:00,60.2,54.0,30.10,SSW,212,5.0,7.0,81,0.00,,,0.00,weatherlink.com 1.10,2013-07-30 17:43:00,
2013-07-30 10:58:00,62.5,55.0,30.10,North,360,3.0,5.0,77,0.00,,,0.00,weatherlink.com 1.10,2013-07-30 17:58:00,
2013-07-30 11:13:00,62.1,55.0,30.10,WSW,257,2.0,5.0,77,0.00,,,0.00,weatherlink.com 1.10,2013-07-30 18:13:00,
2013-07-30 11:28:00,65.5,56.0,30.09,NNW,331,2.0,4.0,71,0.00,,,0.00,weatherlink.com 1.10,2013-07-30 18:28:00,
2013-07-30 11:43:00,65.0,55.0,30.09,West,259,2.0,5.0,71,0.00,,,0.00,weatherlink.com 1.10,2013-07-30 18:43:00,
2013-07-30 11:58:00,67.3,56.0,30.09,SW,236,2.0,6.0,68,0.00,,,0.00,weatherlink.com 1.10,2013-07-30 18:58:00,
2013-07-30 12:13:00,69.3,56.0,30.08,WNW,301,3.0,4.0,63,0.00,,,0.00,weatherlink.com 1.10,2013-07-30 19:13:00,
2013-07-30 12:28:00,71.2,57.0,30.08,West,277,2.0,5.0,61,0.00,,,0.00,weatherlink.com 1.10,2013-07-30 19:28:00,
2013-07-30 12:43:00,72.3,56.0,30.08,WNW,286,4.0,5.0,57,0.00,,,0.00,weatherlink.com 1.10,2013-07-30 19:43:00,
2013-07-30 12:58:00,73.0,57.0,30.08,West,279,1.0,5.0,57,0.00,,,0.00,weatherlink.com 1.10,2013-07-30 19:58:00,
2013-07-30 13:13:00,76.9,58.0,30.07,WNW,290,4.0,5.0,53,0.00,,,0.00,weatherlink.com 1.10,2013-07-30 20:13:00,
2013-07-30 13:28:00,76.5,57.0,30.07,SW,230,3.0,6.0,51,0.00,,,0.00,weatherlink.com 1.10,2013-07-30 20:28:00,
2013-07-30 13:43:00,76.8,57.0,30.06,WNW,286,4.0,6.0,51,0.00,,,0.00,weatherlink.com 1.10,2013-07-30 20:43:00,
2013-07-30 13:58:00,76.8,58.0,30.06,SW,227,2.0,6.0,52,0.00,,,0.00,weatherlink.com 1.10,2013-07-30 20:58:00,
2013-07-30 14:14:00,79.3,58.0,30.06,WNW,293,3.0,5.0,48,0.00,,,0.00,weatherlink.com 1.10,2013-07-30 21:14:00,
2013-07-30 14:29:00,78.8,57.0,30.06,West,274,3.0,5.0,48,0.00,,,0.00,weatherlink.com 1.10,2013-07-30 21:29:00,
2013-07-30 14:44:00,77.5,57.0,30.06,WNW,287,1.0,6.0,50,0.00,,,0.00,weatherlink.com 1.10,2013-07-30 21:44:00,
2013-07-30 14:59:00,77.5,57.0,30.06,West,275,2.0,6.0,49,0.00,,,0.00,weatherlink.com 1.10,2013-07-30 21:59:00,
2013-07-30 15:14:00,77.8,56.0,30.06,WNW,294,5.0,6.0,47,0.00,,,0.00,weatherlink.com 1.10,2013-07-30 22:14:00,
2013-07-30 15:29:00,76.2,55.0,30.06,WSW,254,4.0,9.0,48,0.00,,,0.00,weatherlink.com 1.10,2013-07-30 22:29:00,
2013-07-30 15:44:00,76.3,55.0,30.06,WSW,255,1.0,6.0,48,0.00,,,0.00,weatherlink.com 1.10,2013-07-30 22:44:00,
2013-07-30 15:59:00,76.5,54.0,30.06,West,273,2.0,7.0,46,0.00,,,0.00,weatherlink.com 1.10,2013-07-30 22:59:00,
2013-07-30 16:14:00,74.8,55.0,30.06,SW,227,2.0,9.0,51,0.00,,,0.00,weatherlink.com 1.10,2013-07-30 23:14:00,
2013-07-30 16:29:00,75.3,56.0,30.06,WNW,290,5.0,8.0,51,0.00,,,0.00,weatherlink.com 1.10,2013-07-30 23:29:00,
2013-07-30 16:44:00,75.5,56.0,30.05,NW,317,3.0,6.0,51,0.00,,,0.00,weatherlink.com 1.10,2013-07-30 23:44:00,
2013-07-30 16:59:00,73.5,55.0,30.05,West,259,2.0,8.0,53,0.00,,,0.00,weatherlink.com 1.10,2013-07-30 23:59:00,
2013-07-30 17:14:00,74.3,55.0,30.05,West,281,3.0,6.0,52,0.00,,,0.00,weatherlink.com 1.10,2013-07-31 00:14:00,
2013-07-30 17:29:00,73.2,55.0,30.05,NW,306,2.0,7.0,54,0.00,,,0.00,weatherlink.com 1.10,2013-07-31 00:29:00,
2013-07-30 17:44:00,72.3,55.0,30.05,West,271,1.0,6.0,55,0.00,,,0.00,weatherlink.com 1.10,2013-07-31 00:44:00,
2013-07-30 17:59:00,69.5,54.0,30.05,WNW,292,1.0,6.0,59,0.00,,,0.00,weatherlink.com 1.10,2013-07-31 00:59:00,
2013-07-30 18:14:00,69.7,55.0,30.04,West,279,2.0,4.0,60,0.00,,,0.00,weatherlink.com 1.10,2013-07-31 01:14:00,
2013-07-30 18:29:00,69.3,55.0,30.04,WNW,294,1.0,5.0,60,0.00,,,0.00,weatherlink.com 1.10,2013-07-31 01:29:00,
2013-07-30 18:44:00,68.5,54.0,30.04,West,281,1.0,-999.0,61,-99.99,,,0.00,weatherlink.com 1.10,2013-07-31 01:44:00,
2013-07-30 18:59:00,67.7,55.0,30.04,WSW,248,2.0,4.0,64,0.00,,,0.00,weatherlink.com 1.10,2013-07-31 01:59:00,
2013-07-30 19:14:00,67.4,55.0,30.04,WSW,244,0.0,2.0,64,0.00,,,0.00,weatherlink.com 1.10,2013-07-31 02:14:00,
2013-07-30 19:29:00,66.7,55.0,30.04,WNW,283,1.0,2.0,66,0.00,,,0.00,weatherlink.com 1.10,2013-07-31 02:29:00,
2013-07-30 19:44:00,65.2,55.0,30.04,WNW,284,0.0,2.0,69,0.00,,,0.00,weatherlink.com 1.10,2013-07-31 02:44:00,
2013-07-30 19:59:00,64.4,55.0,30.04,WNW,284,0.0,1.0,71,0.00,,,0.00,weatherlink.com 1.10,2013-07-31 02:59:00,
2013-07-30 20:14:00,63.4,55.0,30.04,WNW,284,0.0,0.0,73,0.00,,,0.00,weatherlink.com 1.10,2013-07-31 03:14:00,
2013-07-30 20:29:00,62.4,54.0,30.04,WNW,284,0.0,0.0,74,0.00,,,0.00,weatherlink.com 1.10,2013-07-31 03:29:00,
2013-07-30 20:44:00,61.2,54.0,30.04,WNW,284,0.0,0.0,77,0.00,,,0.00,weatherlink.com 1.10,2013-07-31 03:44:00,
2013-07-30 20:59:00,60.6,54.0,30.04,WNW,284,0.0,0.0,79,0.00,,,0.00,weatherlink.com 1.10,2013-07-31 03:59:00,
2013-07-30 21:14:00,59.8,53.0,30.04,NE,48,0.0,0.0,79,0.00,,,0.00,weatherlink.com 1.10,2013-07-31 04:14:00,
2013-07-30 21:29:00,59.5,54.0,30.04,NE,50,0.0,0.0,81,0.00,,,0.00,weatherlink.com 1.10,2013-07-31 04:29:00,
2013-07-30 21:44:00,58.4,53.0,30.05,SE,130,0.0,2.0,81,0.00,,,0.00,weatherlink.com 1.10,2013-07-31 04:44:00,
2013-07-30 21:59:00,57.3,52.0,30.05,SE,130,0.0,1.0,82,0.00,,,0.00,weatherlink.com 1.10,2013-07-31 04:59:00,
2013-07-30 22:14:00,57.4,53.0,30.05,NE,56,3.0,4.0,85,0.00,,,0.00,weatherlink.com 1.10,2013-07-31 05:14:00,
2013-07-30 22:29:00,58.0,53.0,30.05,ENE,71,1.0,4.0,84,0.00,,,0.00,weatherlink.com 1.10,2013-07-31 05:29:00,
2013-07-30 22:44:00,57.9,54.0,30.04,ENE,71,1.0,2.0,85,0.00,,,0.00,weatherlink.com 1.10,2013-07-31 05:44:00,
2013-07-30 22:59:00,57.6,54.0,30.04,NE,56,0.0,3.0,86,0.00,,,0.00,weatherlink.com 1.10,2013-07-31 05:59:00,
2013-07-30 23:14:00,57.2,53.0,30.04,NE,56,1.0,1.0,86,0.00,,,0.00,weatherlink.com 1.10,2013-07-31 06:14:00,
2013-07-30 23:29:00,57.5,53.0,30.04,NE,56,0.0,1.0,85,0.00,,,0.00,weatherlink.com 1.10,2013-07-31 06:29:00,
2013-07-30 23:44:00,57.1,53.0,30.03,SSE,148,1.0,2.0,86,0.00,,,0.00,weatherlink.com 1.10,2013-07-31 06:44:00,
2013-07-30 23:59:00,57.3,53.0,30.04,SSE,151,0.0,2.0,85,0.00,,,0.00,weatherlink.com 1.10,2013-07-31 06:59:00,